Airport View

Enter AWOS ICAO identifier for current METAR.

ex. KFNL

KPYM 111852Z AUTO 27005KT 10SM FEW011 M01/M03 A3019 RMK AO2 SLP224 T10061033

11 Dec 2019 19:13

Frequency: 135.625

Phone: 508-746-8003

Other Area AWOS: KGHG - KTAN - KEWB - KFMH

TAF KFMH 111732Z 1118/1218 31006KT 6SM -SN BKN015 FM111900 31005KT P6SM SCT015 FM112200 28008KT P6SM FEW200 FM120400 29011G24KT P6SM SKC FM121000 31010G21KT P6SM SKC FM121300 34009KT P6SM SKC